createdAt,value
2022-10-01T00:00:37.233Z,1.00
2022-10-01T00:06:09.074Z,1.00
2022-10-01T00:11:40.767Z,2.00
2022-10-01T00:17:12.470Z,2.00
2022-10-01T00:22:44.521Z,1.00
2022-10-01T00:28:16.305Z,2.00
2022-10-01T00:33:48.049Z,2.00
2022-10-01T00:39:19.767Z,1.00
2022-10-01T00:44:51.713Z,1.00
2022-10-01T00:50:23.389Z,2.00
2022-10-01T00:55:55.307Z,1.00
2022-10-01T01:01:27.740Z,1.00
2022-10-01T01:06:59.411Z,1.00
2022-10-01T01:12:31.188Z,1.00
2022-10-01T01:18:02.986Z,1.00
2022-10-01T01:23:34.612Z,1.00
2022-10-01T01:29:08.224Z,1.00
2022-10-01T01:34:40.044Z,1.00
2022-10-01T01:40:11.665Z,1.00
2022-10-01T01:45:43.471Z,1.00
2022-10-01T01:51:15.422Z,2.00
2022-10-01T01:56:47.351Z,1.00
2022-10-01T02:02:19.057Z,2.00
2022-10-01T02:07:50.854Z,1.00
2022-10-01T02:13:22.585Z,1.00
2022-10-01T02:18:54.228Z,1.00
2022-10-01T02:24:26.111Z,1.00
2022-10-01T02:29:58.052Z,1.00
2022-10-01T02:35:29.827Z,2.00
2022-10-01T02:41:01.606Z,2.00
2022-10-01T02:46:33.334Z,1.00
2022-10-01T02:52:05.210Z,1.00
2022-10-01T02:57:37.112Z,1.00
2022-10-01T03:03:08.866Z,1.00
2022-10-01T03:08:40.653Z,1.00
2022-10-01T03:14:12.390Z,2.00
2022-10-01T03:16:25.013Z,1.00
2022-10-01T03:21:56.387Z,2.00
2022-10-01T03:27:28.282Z,2.00
2022-10-01T03:32:59.872Z,1.00
2022-10-01T03:38:31.454Z,1.00
2022-10-01T03:44:03.266Z,1.00
2022-10-01T03:49:35.064Z,1.00
2022-10-01T03:55:06.822Z,1.00
2022-10-01T04:00:38.677Z,1.00
2022-10-01T04:06:10.451Z,1.00
2022-10-01T04:14:03.610Z,2.00
2022-10-01T04:19:34.901Z,2.00
2022-10-01T04:25:06.505Z,3.00
2022-10-01T04:30:38.018Z,5.00
2022-10-01T04:41:39.179Z,29.00
2022-10-01T04:52:40.309Z,240.00
2022-10-01T04:58:11.986Z,580.00
2022-10-01T05:03:43.544Z,2561.00
2022-10-01T05:09:15.238Z,5283.00
2022-10-01T05:14:47.070Z,6447.00
2022-10-01T05:20:18.764Z,8056.00
2022-10-01T05:25:50.358Z,12237.00
2022-10-01T05:31:21.932Z,37889.00
2022-10-01T05:36:53.805Z,37889.00
2022-10-01T05:42:25.499Z,37889.00
2022-10-01T05:47:57.521Z,37889.00
2022-10-01T05:53:28.987Z,37889.00
2022-10-01T05:59:01.106Z,33509.00
2022-10-01T06:04:32.536Z,35994.00
2022-10-01T06:10:04.333Z,37889.00
2022-10-01T06:15:35.988Z,37889.00
2022-10-01T06:21:07.905Z,37889.00
2022-10-01T06:26:39.694Z,37889.00
2022-10-01T06:32:11.471Z,37889.00
2022-10-01T06:37:43.289Z,37889.00
2022-10-01T06:43:14.988Z,37889.00
2022-10-01T06:54:16.241Z,37889.00
2022-10-01T06:59:47.858Z,37889.00
2022-10-01T07:05:19.548Z,37889.00
2022-10-01T07:10:51.427Z,37889.00
2022-10-01T07:16:23.232Z,37889.00
2022-10-01T07:21:54.809Z,37889.00
2022-10-01T07:27:26.820Z,37889.00
2022-10-01T07:32:58.344Z,37889.00
2022-10-01T07:38:29.750Z,37889.00
2022-10-01T07:49:33.264Z,37889.00
2022-10-01T07:55:05.141Z,37889.00
2022-10-01T08:00:36.995Z,37889.00
2022-10-01T08:06:08.616Z,37889.00
2022-10-01T08:11:40.455Z,37889.00
2022-10-01T08:17:12.264Z,37889.00
2022-10-01T08:22:44.039Z,37889.00
2022-10-01T08:33:47.704Z,37889.00
2022-10-01T08:39:19.517Z,37889.00
2022-10-01T08:44:54.412Z,37889.00
2022-10-01T08:50:25.899Z,37889.00
2022-10-01T08:55:57.698Z,37889.00
2022-10-01T09:06:58.864Z,37889.00
2022-10-01T09:12:30.383Z,37889.00
2022-10-01T09:18:02.167Z,37889.00
2022-10-01T09:23:34.306Z,37889.00
2022-10-01T09:29:06.297Z,37889.00
2022-10-01T09:40:07.589Z,33581.00
2022-10-01T09:45:39.517Z,30658.00
2022-10-01T09:51:10.968Z,31303.00
2022-10-01T09:56:42.844Z,35504.00
2022-10-01T10:02:14.710Z,37889.00
2022-10-01T10:07:46.259Z,37889.00
2022-10-01T10:13:18.079Z,36704.00
2022-10-01T10:18:49.979Z,30096.00
2022-10-01T10:24:22.208Z,28624.00
2022-10-01T10:29:53.744Z,27784.00
2022-10-01T10:35:25.347Z,26856.00
2022-10-01T10:40:57.176Z,23393.00
2022-10-01T10:46:29.010Z,20139.00
2022-10-01T10:52:00.775Z,20054.00
2022-10-01T10:57:32.613Z,21873.00
2022-10-01T11:03:04.380Z,21038.00
2022-10-01T11:08:36.271Z,20229.00
2022-10-01T11:14:07.936Z,21067.00
2022-10-01T11:19:39.758Z,21858.00
2022-10-01T11:30:41.176Z,18981.00
2022-10-01T11:36:12.959Z,17235.00
2022-10-01T11:41:44.724Z,16812.00
2022-10-01T11:47:16.533Z,17254.00
2022-10-01T11:52:48.332Z,16721.00
2022-10-01T11:58:20.005Z,16274.00
2022-10-01T12:03:51.663Z,14051.00
2022-10-01T12:09:23.420Z,14394.00
2022-10-01T12:14:55.261Z,17421.00
2022-10-01T12:20:26.946Z,17830.00
2022-10-01T12:31:28.498Z,15322.00
2022-10-01T12:37:00.095Z,19201.00
2022-10-01T12:42:31.843Z,16801.00
2022-10-01T12:48:03.822Z,18176.00
2022-10-01T12:53:35.430Z,19459.00
2022-10-01T12:59:07.234Z,17475.00
2022-10-01T13:04:38.934Z,17668.00
2022-10-01T13:10:10.873Z,18244.00
2022-10-01T13:15:42.802Z,17408.00
2022-10-01T13:21:14.335Z,18038.00
2022-10-01T13:26:45.934Z,19364.00
2022-10-01T13:32:17.741Z,16551.00
2022-10-01T13:37:49.875Z,18703.00
2022-10-01T13:43:21.868Z,17046.00
2022-10-01T13:48:53.558Z,16549.00
2022-10-01T13:54:25.568Z,18594.00
2022-10-01T13:59:57.700Z,19649.00
2022-10-01T14:05:29.624Z,16964.00
2022-10-01T14:11:01.328Z,18040.00
2022-10-01T14:16:33.196Z,25357.00
2022-10-01T14:22:04.694Z,21943.00
2022-10-01T14:27:36.720Z,18739.00
2022-10-01T14:33:08.662Z,15096.00
2022-10-01T14:38:40.120Z,17438.00
2022-10-01T14:44:12.136Z,19525.00
2022-10-01T14:49:43.801Z,23874.00
2022-10-01T14:55:15.592Z,17724.00
2022-10-01T15:00:47.929Z,16458.00
2022-10-01T15:06:19.860Z,11439.00
2022-10-01T15:11:51.753Z,13981.00
2022-10-01T15:17:23.698Z,13158.00
2022-10-01T15:23:00.369Z,12041.00
2022-10-01T15:28:27.230Z,11590.00
2022-10-01T15:33:59.236Z,11559.00
2022-10-01T15:39:30.795Z,10608.00
2022-10-01T15:45:02.562Z,9795.00
2022-10-01T15:50:34.331Z,9204.00
2022-10-01T15:56:06.178Z,7966.00
2022-10-01T16:01:37.996Z,6149.00
2022-10-01T16:07:09.733Z,5265.00
2022-10-01T16:12:41.526Z,4501.00
2022-10-01T16:18:13.062Z,3734.00
2022-10-01T16:23:44.597Z,2910.00
2022-10-01T16:29:16.455Z,2250.00
2022-10-01T16:34:48.339Z,1798.00
2022-10-01T16:40:20.210Z,1349.00
2022-10-01T16:45:51.952Z,809.00
2022-10-01T16:51:24.016Z,455.00
2022-10-01T16:56:55.606Z,288.00
2022-10-01T17:02:27.422Z,218.00
2022-10-01T17:07:59.172Z,72.00
2022-10-01T17:13:31.018Z,41.00
2022-10-01T17:19:02.721Z,14.00
2022-10-01T17:24:34.473Z,6.00
2022-10-01T17:26:46.201Z,4.00
2022-10-01T17:32:17.752Z,3.00
2022-10-01T17:37:49.506Z,2.00
2022-10-01T17:43:21.235Z,2.00
2022-10-01T17:48:52.325Z,2.00
2022-10-01T17:54:24.375Z,2.00
2022-10-01T17:59:56.108Z,2.00
2022-10-01T18:05:27.637Z,2.00
2022-10-01T18:10:59.479Z,3.00
2022-10-01T18:16:31.221Z,2.00
2022-10-01T18:22:03.134Z,2.00
2022-10-01T18:27:34.237Z,2.00
2022-10-01T18:33:06.056Z,2.00
2022-10-01T18:38:38.002Z,2.00
2022-10-01T18:44:09.657Z,2.00
2022-10-01T18:51:55.406Z,2.00
2022-10-01T18:57:27.719Z,1.00
2022-10-01T19:02:59.741Z,1.00
2022-10-01T19:08:31.590Z,2.00
2022-10-01T19:14:03.093Z,2.00
2022-10-01T19:19:34.697Z,2.00
2022-10-01T19:25:06.343Z,13.00
2022-10-01T19:30:38.022Z,15.00
2022-10-01T19:36:09.591Z,13.00
2022-10-01T19:41:41.169Z,14.00
2022-10-01T19:47:13.101Z,13.00
2022-10-01T19:52:45.129Z,13.00
2022-10-01T19:58:17.165Z,13.00
2022-10-01T20:03:49.250Z,14.00
2022-10-01T20:09:21.109Z,13.00
2022-10-01T20:14:52.854Z,14.00
2022-10-01T20:20:24.544Z,13.00
2022-10-01T20:25:56.253Z,13.00
2022-10-01T20:31:28.183Z,14.00
2022-10-01T20:37:00.121Z,13.00
2022-10-01T20:42:31.872Z,14.00
2022-10-01T20:53:35.304Z,4.00
2022-10-01T20:59:07.014Z,4.00
2022-10-01T21:04:39.826Z,3.00
2022-10-01T21:10:11.512Z,4.00
2022-10-01T21:15:42.949Z,4.00
2022-10-01T21:21:14.665Z,4.00
2022-10-01T21:26:46.440Z,3.00
2022-10-01T21:32:17.812Z,4.00
2022-10-01T21:37:49.881Z,4.00
2022-10-01T21:43:21.628Z,4.00
2022-10-01T21:48:53.344Z,4.00
2022-10-01T21:54:24.890Z,4.00
2022-10-01T21:59:56.823Z,4.00
2022-10-01T22:11:00.056Z,3.00
2022-10-01T22:16:32.111Z,3.00
2022-10-01T22:22:03.829Z,5.00
2022-10-01T22:27:35.606Z,4.00
2022-10-01T22:38:38.896Z,4.00
2022-10-01T22:49:42.316Z,3.00
2022-10-01T22:55:14.126Z,4.00
2022-10-01T23:00:51.759Z,3.00
2022-10-01T23:06:23.299Z,4.00
2022-10-01T23:11:57.395Z,4.00
2022-10-01T23:17:29.538Z,4.00
2022-10-01T23:23:01.243Z,4.00
2022-10-01T23:28:32.727Z,4.00
2022-10-01T23:34:04.914Z,4.00
2022-10-01T23:39:36.361Z,3.00
2022-10-01T23:45:08.114Z,4.00
2022-10-01T23:50:39.857Z,3.00
2022-10-01T23:56:11.910Z,4.00
